• Join FlightAware (Why Join?)
  • Login
  • US Flag 
03:40AM EDT


 

Airport Tracker/Info


-or-


 

Live Flight TrackerFlight Track Log ✈ SWA756 ✈ 29-Apr-2013 ✈ KHOU - KOAK

Flight Track Log - Related Links

Times and Time Zones

All times are in EDT time to prevent confusion due to time zone crossing. See the SWA756 flight status page for this flight to view local times or setup timezone preferences in your user account.

Time Position Orientation Groundspeed Altitude Reporting Facility
EDT Latitude Longitude Course Direction KTS MPH feet Rate Location/Type
09:51AM 29.6794 -95.2644 354° North 181 208 1,400  Level Houston Center
09:52AM 29.6981 -95.3319 288° West 234 269 3,700 1,860 Climbing Houston Center
09:52AM 29.7025 -95.3433 294° West 226 260 3,900 2,820 Climbing Houston Center
09:53AM 29.7183 -95.4161 284° West 278 320 6,600 3,060 Climbing Houston Center
09:53AM 29.7225 -95.4275 293° West 263 303 7,100 3,780 Climbing Houston Center
09:54AM 29.7397 -95.5100 284° West 289 333 10,500 3,960 Climbing Houston Center
09:54AM 29.7458 -95.5358 285° West 290 334 11,200 2,040 Climbing Houston Center
09:55AM 29.7700 -95.6400 285° West 328 377 13,300 2,460 Climbing Houston Center
09:56AM 29.8008 -95.7503 288° West 360 414 16,400 2,580 Climbing Houston Center
09:57AM 29.8358 -95.8647 289° West 378 435 18,700 2,220 Climbing Houston Center
09:58AM 29.8717 -95.9867 289° West 400 460 21,100 2,280 Climbing Houston Center
09:59AM 29.9108 -96.1203 289° West 416 479 23,500 1,980 Climbing Houston Center
10:00AM 29.9392 -96.2511 284° West 424 488 25,300 1,980 Climbing Houston Center
10:01AM 29.9478 -96.4194 273° West 441 507 27,600 2,040 Climbing Houston Center
10:02AM 29.9561 -96.5592 274° West 441 507 29,600 1,980 Climbing Houston Center
10:03AM 29.9828 -96.6928 283° West 432 497 31,700 1,980 Climbing Houston Center
10:04AM 30.0103 -96.8253 284° West 428 493 33,800 1,920 Climbing Houston Center
10:05AM 30.0367 -96.9494 284° West 407 468 35,700 1,680 Climbing Houston Center
10:06AM 30.0672 -97.0961 284° West 395 455 37,300 1,080 Climbing Houston Center
10:07AM 30.0925 -97.2181 284° West 393 452 38,000 300 Climbing Houston Center
10:08AM 30.1219 -97.3483 285° West 393 452 38,000  Level Houston Center
10:09AM 30.1500 -97.4725 285° West 395 455 38,000  Level Houston Center
10:10AM 30.1781 -97.5964 285° West 394 453 38,000  Level Houston Center
10:11AM 30.2069 -97.7219 285° West 397 457 38,000  Level Houston Center
10:13AM 30.2356 -97.8489 285° West 401 461 38,000  Level Houston Center
10:14AM 30.2650 -97.9861 284° West 400 460 38,000  Level Houston Center
10:15AM 30.2953 -98.1211 285° West 403 464 38,000  Level Houston Center
10:16AM 30.3183 -98.2286 284° West 400 460 38,000  Level Houston Center
10:17AM 30.3519 -98.3767 285° West 403 464 38,000  Level Houston Center
10:18AM 30.3794 -98.5031 284° West 402 463 38,000  Level Houston Center
10:19AM 30.4058 -98.6289 284° West 400 460 38,000  Level Houston Center
10:20AM 30.4331 -98.7550 284° West 399 459 38,000  Level Houston Center
10:21AM 30.4614 -98.8817 285° West 403 464 38,000  Level Houston Center
10:22AM 30.4881 -99.0092 284° West 403 464 38,000  Level Houston Center
10:23AM 30.5147 -99.1369 284° West 404 465 38,000  Level Houston Center
10:24AM 30.5436 -99.2608 285° West 400 460 38,000  Level Houston Center
10:25AM 30.5744 -99.4128 283° West 404 465 38,000  Level Houston Center
10:26AM 30.6014 -99.5383 284° West 403 464 38,000  Level Houston Center
10:27AM 30.6275 -99.6639 284° West 403 464 38,000  Level Houston Center
10:28AM 30.6517 -99.7889 283° West 400 460 38,000  Level Houston Center
10:29AM 30.6781 -99.9147 284° West 405 466 38,000  Level Houston Center
10:30AM 30.7092 -100.0664 283° West 406 467 38,000  Level Houston Center
10:31AM 30.7356 -100.1922 284° West 404 465 38,000  Level Houston Center
10:32AM 30.7600 -100.3206 283° West 407 468 38,000  Level Houston Center
10:33AM 30.7869 -100.4478 284° West 407 468 38,000  Level Houston Center
10:34AM 30.8117 -100.5747 283° West 406 467 38,000  Level Houston Center
10:35AM 30.8414 -100.7281 283° West 407 468 38,000  Level Houston Center
10:36AM 30.8669 -100.8553 283° West 408 470 38,000  Level Houston Center
10:37AM 30.8925 -100.9819 283° West 405 466 38,000  Level Houston Center
10:38AM 30.9178 -101.1100 283° West 408 470 38,000  Level Houston Center
10:39AM 30.9444 -101.2364 284° West 405 466 38,000  Level Houston Center
10:40AM 30.9719 -101.3794 283° West 407 468 38,000  Level Houston Center
10:41AM 30.9908 -101.4831 282° West 410 472 38,000  Level Albuquerque Center
10:42AM 31.0161 -101.6142 283° West 412 474 38,000  Level Albuquerque Center
10:43AM 31.0406 -101.7447 282° West 412 474 38,000  Level Albuquerque Center
10:44AM 31.0653 -101.8764 282° West 415 478 38,000  Level Albuquerque Center
10:45AM 31.0894 -102.0128 282° West 420 483 38,000  Level Albuquerque Center
10:46AM 31.1139 -102.1414 283° West 411 473 38,000  Level Albuquerque Center
10:47AM 31.1386 -102.2703 283° West 408 470 38,000  Level Albuquerque Center
10:48AM 31.1619 -102.3997 282° West 407 468 38,000  Level Albuquerque Center
10:49AM 31.1908 -102.5567 282° West 403 464 38,000  Level Albuquerque Center
10:50AM 31.2147 -102.6839 282° West 399 459 38,000  Level Albuquerque Center
10:52AM 31.2372 -102.8122 282° West 402 463 38,000  Level Albuquerque Center
10:53AM 31.2603 -102.9397 282° West 402 463 38,000  Level Albuquerque Center
10:54AM 31.2836 -103.0686 282° West 404 465 38,000  Level Albuquerque Center
10:55AM 31.3061 -103.1967 282° West 405 466 38,000  Level Albuquerque Center
10:56AM 31.3286 -103.3269 281° West 408 470 38,000  Level Albuquerque Center
10:57AM 31.3556 -103.4847 281° West 412 474 38,000  Level Albuquerque Center
10:58AM 31.3778 -103.6158 281° West 412 474 38,000  Level Albuquerque Center
10:59AM 31.4014 -103.7475 282° West 413 475 38,000  Level Albuquerque Center
11:00AM 31.4258 -103.8900 281° West 415 478 38,000  Level Albuquerque Center
11:01AM 31.4492 -104.0219 282° West 415 478 38,000  Level Albuquerque Center
11:02AM 31.4719 -104.1533 282° West 414 476 38,000  Level Albuquerque Center
11:03AM 31.4956 -104.2847 282° West 414 476 38,000  Level Albuquerque Center
11:04AM 31.5161 -104.4153 280° West 412 474 38,000  Level Albuquerque Center
11:05AM 31.5389 -104.5450 282° West 409 471 38,000  Level Albuquerque Center
11:06AM 31.5644 -104.7033 281° West 413 475 38,000  Level Albuquerque Center
11:07AM 31.5867 -104.8344 281° West 413 475 38,000  Level Albuquerque Center
11:08AM 31.6083 -104.9658 281° West 413 475 38,000  Level Albuquerque Center
11:09AM 31.6303 -105.0994 281° West 418 481 38,000  Level Albuquerque Center
11:10AM 31.6517 -105.2322 281° West 416 479 38,000  Level Albuquerque Center
11:11AM 31.6767 -105.3958 280° West 427 491 38,000  Level Albuquerque Center
11:12AM 31.6981 -105.5297 281° West 421 484 38,000  Level Albuquerque Center
11:13AM 31.7192 -105.6633 281° West 419 482 38,000  Level Albuquerque Center
11:14AM 31.7406 -105.7969 281° West 418 481 38,000  Level Albuquerque Center
11:15AM 31.7603 -105.9294 280° West 415 478 38,000  Level Albuquerque Center
11:16AM 31.7811 -106.0611 281° West 414 476 38,000  Level Albuquerque Center
11:17AM 31.8072 -106.2183 281° West 412 474 38,000  Level Albuquerque Center
11:18AM 31.8589 -106.3381 297° West 417 480 38,000  Level Albuquerque Center
11:19AM 31.9328 -106.4369 311° West 419 482 38,000  Level Albuquerque Center
11:20AM 32.0103 -106.5367 313° West 414 476 38,000  Level Albuquerque Center
11:21AM 32.0892 -106.6392 312° West 421 484 38,000  Level Albuquerque Center
11:22AM 32.1828 -106.7628 312° West 422 486 38,000  Level Albuquerque Center
11:24AM 32.2611 -106.8667 312° West 425 489 38,000  Level Albuquerque Center
11:25AM 32.3456 -106.9775 312° West 424 488 38,000  Level Albuquerque Center
11:26AM 32.4308 -107.0906 312° West 428 493 38,000  Level Albuquerque Center
11:27AM 32.4994 -107.1867 310° West 432 497 38,000  Level Albuquerque Center
11:28AM 32.5900 -107.3094 311° West 430 495 38,000  Level Albuquerque Center
11:29AM 32.6683 -107.4142 312° West 428 493 38,000  Level Albuquerque Center
11:30AM 32.7389 -107.5119 311° West 427 491 38,000  Level Albuquerque Center
11:31AM 32.8336 -107.6406 311° West 430 495 38,000  Level Albuquerque Center
11:32AM 32.9114 -107.7456 311° West 426 490 38,000  Level Albuquerque Center
11:33AM 32.9892 -107.8511 311° West 426 490 38,000  Level Albuquerque Center
11:34AM 33.0675 -107.9564 312° West 424 488 38,000  Level Albuquerque Center
11:35AM 33.1444 -108.0636 311° West 426 490 38,000  Level Albuquerque Center
11:36AM 33.2244 -108.1706 312° West 424 488 38,000  Level Albuquerque Center
11:37AM 33.3175 -108.2972 311° West 426 490 38,000  Level Albuquerque Center
11:38AM 33.3942 -108.4036 311° West 428 493 38,000  Level Albuquerque Center
11:39AM 33.4692 -108.5097 310° West 426 490 38,000  Level Albuquerque Center
11:40AM 33.5464 -108.6147 311° West 426 490 38,000  Level Albuquerque Center
11:41AM 33.6222 -108.7222 310° West 427 491 38,000  Level Albuquerque Center
11:42AM 33.7144 -108.8506 311° West 429 494 38,000  Level Albuquerque Center
11:43AM 33.7906 -108.9592 310° West 429 494 38,000  Level Albuquerque Center
11:44AM 33.8667 -109.0658 311° West 428 493 38,000  Level Albuquerque Center
11:45AM 33.9433 -109.1731 311° West 427 491 38,000  Level Albuquerque Center
11:46AM 34.0350 -109.3028 310° West 427 491 38,000  Level Albuquerque Center
11:47AM 34.1103 -109.4108 310° West 426 490 38,000  Level Albuquerque Center
11:48AM 34.1878 -109.5222 310° West 425 489 38,000  Level Albuquerque Center
11:49AM 34.2611 -109.6247 311° West 422 486 38,000  Level Albuquerque Center
11:50AM 34.3456 -109.7472 310° West 422 486 38,000  Level Albuquerque Center
11:51AM 34.4181 -109.8531 310° West 424 488 38,000  Level Albuquerque Center
11:52AM 34.4708 -109.9967 294° West 416 479 38,000  Level Albuquerque Center
11:53AM 34.5136 -110.1228 292° West 420 483 38,000  Level Albuquerque Center
11:55AM 34.5633 -110.2689 292° West 419 482 38,000  Level Albuquerque Center
11:56AM 34.6089 -110.3992 293° West 430 495 38,000  Level Albuquerque Center
11:57AM 34.6558 -110.5433 292° West 419 482 38,000  Level Albuquerque Center
11:58AM 34.6964 -110.6672 292° West 415 478 38,000  Level Albuquerque Center
11:59AM 34.7392 -110.8003 291° West 419 482 38,000  Level Albuquerque Center
12:00PM 34.7800 -110.9319 291° West 419 482 38,000  Level Albuquerque Center
12:01PM 34.8239 -111.0589 293° West 413 475 38,000  Level Albuquerque Center
12:02PM 34.8678 -111.1944 292° West 425 489 38,000  Level Albuquerque Center
12:03PM 34.9181 -111.3517 291° West 420 483 38,000  Level Albuquerque Center
12:04PM 34.9608 -111.4828 292° West 420 483 38,000  Level Albuquerque Center
12:05PM 35.0036 -111.6128 292° West 416 479 38,000  Level Albuquerque Center
12:06PM 35.0514 -111.7631 291° West 420 483 38,000  Level Albuquerque Center
12:07PM 35.0928 -111.8936 291° West 417 480 38,000  Level Albuquerque Center
12:08PM 35.1353 -112.0264 291° West 420 483 38,000  Level Albuquerque Center
12:09PM 35.1781 -112.1589 292° West 423 487 38,000  Level Albuquerque Center
12:10PM 35.2206 -112.2933 291° West 425 489 38,000  Level Albuquerque Center
12:11PM 35.2628 -112.4272 291° West 426 490 38,000  Level Albuquerque Center
12:12PM 35.3128 -112.5867 291° West 423 487 38,000  Level Albuquerque Center
12:13PM 35.3547 -112.7203 291° West 423 487 38,000  Level Albuquerque Center
12:14PM 35.3914 -112.8356 291° West 419 482 38,000  Level Los Angeles Center
12:15PM 35.4353 -112.9667 292° West 418 481 38,000  Level Los Angeles Center
12:16PM 35.4731 -113.1039 289° West 418 481 38,000  Level Los Angeles Center
12:17PM 35.5139 -113.2364 291° West 414 476 38,000  Level Los Angeles Center
12:18PM 35.5550 -113.3728 290° West 419 482 38,000  Level Los Angeles Center
12:19PM 35.5956 -113.5058 291° West 420 483 38,000  Level Los Angeles Center
12:20PM 35.6353 -113.6381 290° West 418 481 38,000  Level Los Angeles Center
12:21PM 35.6836 -113.7981 290° West 419 482 38,000  Level Los Angeles Center
12:22PM 35.7244 -113.9308 291° West 415 478 38,000  Level Los Angeles Center
12:23PM 35.7647 -114.0658 290° West 416 479 38,000  Level Los Angeles Center
12:24PM 35.8033 -114.2006 289° West 419 482 38,000  Level Los Angeles Center
12:25PM 35.8425 -114.3328 290° West 413 475 38,000  Level Los Angeles Center
12:26PM 35.8814 -114.4650 290° West 411 473 38,000  Level Los Angeles Center
12:27PM 35.9278 -114.6242 290° West 411 473 38,000  Level Los Angeles Center
12:28PM 35.9661 -114.7578 290° West 414 476 38,000  Level Los Angeles Center
12:29PM 36.0075 -114.8914 291° West 416 479 38,000  Level Los Angeles Center
12:30PM 36.0633 -115.0167 299° West 416 479 38,000  Level Los Angeles Center
12:31PM 36.1203 -115.1447 299° West 423 487 38,000  Level Los Angeles Center
12:32PM 36.1761 -115.2722 299° West 422 486 38,000  Level Los Angeles Center
12:34PM 36.2422 -115.4264 298° West 424 488 38,000  Level Los Angeles Center
12:35PM 36.2981 -115.5525 299° West 423 487 38,000  Level Los Angeles Center
12:36PM 36.3575 -115.6975 297° West 426 490 38,000  Level Los Angeles Center
12:37PM 36.4122 -115.8242 298° West 420 483 38,000  Level Los Angeles Center
12:38PM 36.4614 -115.9389 298° West 420 483 38,000  Level Los Angeles Center
12:39PM 36.5278 -116.0939 298° West 423 487 38,000  Level Los Angeles Center
12:40PM 36.5833 -116.2244 298° West 425 489 38,000  Level Los Angeles Center
12:41PM 36.6378 -116.3544 298° West 423 487 38,000  Level Los Angeles Center
12:42PM 36.6931 -116.4844 298° West 424 488 38,000  Level Los Angeles Center
12:43PM 36.7469 -116.6136 298° West 422 486 38,000  Level Los Angeles Center
12:44PM 36.8017 -116.7422 298° West 420 483 38,000  Level Los Angeles Center
12:45PM 36.8961 -116.8244 325° Northwest 413 475 38,000  Level Los Angeles Center
12:46PM 37.0097 -116.9222 326° Northwest 413 475 38,000  Level Los Angeles Center
12:47PM 37.1047 -117.0011 326° Northwest 410 472 38,000  Level Los Angeles Center
12:48PM 37.2003 -117.0817 326° Northwest 412 474 38,000  Level Los Angeles Center
12:49PM 37.2431 -117.2194 291° West 428 493 38,000  Level Los Angeles Center
12:50PM 37.2706 -117.3631 284° West 425 489 38,000  Level Los Angeles Center
12:51PM 37.2986 -117.5061 284° West 422 486 38,000  Level Los Angeles Center
12:52PM 37.3264 -117.6492 284° West 421 484 38,000  Level Los Angeles Center
12:53PM 37.3603 -117.8211 284° West 421 484 38,000  Level Los Angeles Center
12:54PM 37.3869 -117.9639 283° West 419 482 38,000  Level Los Angeles Center
12:55PM 37.4192 -118.1372 283° West 420 483 38,000  Level Oakland Center
12:56PM 37.4464 -118.2789 284° West 418 481 38,000 -180 Level Oakland Center
12:57PM 37.4731 -118.4225 283° West 420 483 37,700 -660 Descending Oakland Center
12:58PM 37.4994 -118.5653 283° West 418 481 36,700 -960 Descending Oakland Center
12:59PM 37.5244 -118.7083 282° West 417 480 35,800 -900 Descending Oakland Center
01:00PM 37.5492 -118.8389 283° West 421 484 34,900 -900 Descending Oakland Center
01:02PM 37.5792 -119.0125 282° West 424 488 34,000 -300 Descending Oakland Center
01:04PM 37.6319 -119.3067 283° West 418 481 34,000  Level Oakland Center
01:05PM 37.6578 -119.4508 283° West 420 483 34,000  Level Oakland Center
01:06PM 37.6833 -119.5953 283° West 421 484 34,000  Level Oakland Center
01:07PM 37.7086 -119.7411 282° West 425 489 34,000  Level Oakland Center
01:08PM 37.7344 -119.8864 283° West 426 490 34,000 -540 Level Oakland Center
01:09PM 37.7589 -120.0317 282° West 423 487 33,000 -1,020 Descending Oakland Center
01:10PM 37.7822 -120.1744 282° West 418 481 32,000 -540 Descending Oakland Center
01:11PM 37.8056 -120.3117 282° West 405 466 32,000 -120 Level Oakland Center
01:12PM 37.8303 -120.4508 283° West 403 464 31,800 -1,920 Descending Oakland Center
01:13PM 37.8542 -120.5958 282° West 413 475 28,100 -3,960 Descending Oakland Center
01:13PM 37.8667 -120.6667 283° West 436 502 26,600 -2,460 Descending Northern Cal TRACON
01:14PM 37.8500 -120.8167 262° West 413 475 25,000 -1,200 Descending Northern Cal TRACON
01:15PM 37.8500 -120.9667 270° West 405 466 24,300 -1,680 Descending Northern Cal TRACON
01:16PM 37.8333 -121.1000 261° West 399 459 21,700 -2,280 Descending Northern Cal TRACON
01:17PM 37.8167 -121.2167 260° West 494 568 20,000 -2,760 Descending Northern Cal TRACON
01:18PM 37.7667 -121.3667 247° West 393 452 16,200 -3,480 Descending Northern Cal TRACON
01:19PM 37.7167 -121.4833 242° Southwest 398 458 12,700 -3,000 Descending Northern Cal TRACON
01:20PM 37.6833 -121.6000 250° West 377 434 10,200 -1,500 Descending Northern Cal TRACON
01:21PM 37.6667 -121.7167 260° West 296 341 9,800 -1,200 Descending Northern Cal TRACON
01:22PM 37.6500 -121.8167 258° West 283 326 7,800 -1,500 Descending Northern Cal TRACON
01:23PM 37.6333 -121.9000 256° West 258 297 7,000 -1,020 Descending Northern Cal TRACON
01:24PM 37.6167 -121.9667 253° West 236 272 5,900 -1,380 Descending Northern Cal TRACON
01:25PM 37.5833 -122.0333 238° Southwest 197 227 4,300 -1,620 Descending Northern Cal TRACON
01:26PM 37.6167 -122.0833 310° West 174 200 2,700 -1,320 Descending Northern Cal TRACON
01:27PM 37.6333 -122.1167 302° West 163 188 1,900 -900 Descending Northern Cal TRACON
01:27PM 37.6419 -122.1261 319° Northwest 173 199 1,700 -720 Descending Oakland Center
01:28PM 37.6675 -122.1639 311° West 157 181 1,000 -720 Descending Oakland Center
01:29PM 37.6914 -122.2003 310° West 144 166 300 15,120 Descending Oakland Center
01:30PM 37.7108 -122.2281 312° West 115 132 32,000 30,660 Climbing Oakland Center
01:32PM 37.7167 -122.2167 270° West  Level FlightAware Approximate